Time;durP1;ratioP1;P1;durP2;ratioP2;P2;SDS_P1;SDS_P2;PMS_P1;PMS_P2;Temp;Humidity;BMP_temperature;BMP_pressure;BME280_temperature;BME280_humidity;BME280_pressure;Samples;Min_cycle;Max_cycle;Signal;HPM_P1;HPM_P2
2021/08/19 00:01:16;;;;;;;9.25;5.30;;;;;;;25.00;59.64;99402.97;5041406;28;20553;-47
2021/08/19 00:03:42;;;;;;;8.65;5.70;;;;;;;25.17;59.38;99397.66;5033363;28;20033;-48
2021/08/19 00:06:07;;;;;;;8.55;5.60;;;;;;;25.42;58.12;99398.19;5044110;28;20079;-47
2021/08/19 00:08:33;;;;;;;8.80;5.60;;;;;;;25.36;58.12;99400.22;5034684;28;20068;-50
2021/08/19 00:10:58;;;;;;;6.60;5.13;;;;;;;25.06;59.46;99400.94;5039324;28;20405;-50
2021/08/19 00:13:24;;;;;;;9.25;5.43;;;;;;;24.81;59.28;99397.69;5042265;28;20035;-50
2021/08/19 00:15:50;;;;;;;7.35;5.28;;;;;;;25.01;58.52;99401.84;5032492;28;20030;-50
2021/08/19 00:18:16;;;;;;;9.07;5.70;;;;;;;24.78;58.48;99404.53;5045027;28;20029;-48
2021/08/19 00:20:41;;;;;;;7.68;5.43;;;;;;;24.52;59.88;99407.00;5036803;28;20218;-51
2021/08/19 00:23:07;;;;;;;7.80;5.47;;;;;;;24.58;59.41;99402.28;5038110;28;20419;-50
2021/08/19 00:25:32;;;;;;;7.43;5.30;;;;;;;24.79;58.70;99410.78;5039372;28;20404;-50
2021/08/19 00:27:58;;;;;;;7.18;5.70;;;;;;;24.85;57.96;99404.13;5045351;28;20025;-50
2021/08/19 00:30:24;;;;;;;8.50;5.30;;;;;;;24.30;58.35;99404.97;5034094;28;20433;-51
2021/08/19 00:32:49;;;;;;;10.98;4.85;;;;;;;24.25;57.37;99401.56;5040310;28;20018;-48
2021/08/19 00:35:15;;;;;;;9.05;5.00;;;;;;;24.05;58.23;99402.78;5041140;28;20025;-51
2021/08/19 00:37:40;;;;;;;7.72;4.82;;;;;;;24.15;58.44;99397.94;5033344;28;20029;-48
2021/08/19 00:40:06;;;;;;;9.50;5.57;;;;;;;23.66;58.72;99398.56;5045477;28;20043;-48
2021/08/19 00:42:32;;;;;;;6.90;4.97;;;;;;;23.42;60.03;99397.59;5031510;28;20067;-48
2021/08/19 00:44:58;;;;;;;9.73;4.90;;;;;;;23.76;58.46;99390.22;5038609;28;20047;-47
2021/08/19 00:47:26;;;;;;;6.57;4.70;;;;;;;24.03;57.55;99396.81;5034264;28;20025;-48
2021/08/19 00:49:51;;;;;;;7.80;4.82;;;;;;;24.02;57.06;99387.06;5045206;28;20027;-51
2021/08/19 00:52:17;;;;;;;7.68;4.95;;;;;;;23.65;58.61;99405.91;5031626;28;20021;-49
2021/08/19 00:54:42;;;;;;;7.78;4.90;;;;;;;23.55;58.54;99398.75;5027396;28;20025;-47
2021/08/19 00:57:08;;;;;;;6.38;4.88;;;;;;;23.90;58.16;99390.28;5027335;28;20497;-48
2021/08/19 00:59:34;;;;;;;7.47;5.00;;;;;;;23.75;57.68;99396.75;5043394;28;20020;-47
2021/08/19 01:01:59;;;;;;;6.95;4.90;;;;;;;23.70;58.15;99391.41;5032089;28;20018;-48
2021/08/19 01:04:36;;;;;;;8.85;4.80;;;;;;;23.22;58.77;99393.28;5043397;28;20465;-47
2021/08/19 01:07:02;;;;;;;6.13;4.50;;;;;;;23.10;59.26;99387.53;5039072;28;20249;-49
2021/08/19 01:09:28;;;;;;;10.80;4.88;;;;;;;23.69;57.03;99381.66;5034865;28;20697;-48
2021/08/19 01:11:54;;;;;;;7.03;4.78;;;;;;;23.28;57.05;99385.06;5045069;28;20126;-48
2021/08/19 01:14:19;;;;;;;6.97;4.47;;;;;;;22.75;58.96;99383.38;5033159;28;20071;-50
2021/08/19 01:16:45;;;;;;;7.05;4.30;;;;;;;22.95;57.79;99380.38;5040494;28;20021;-48
2021/08/19 01:19:15;;;;;;;8.90;4.55;;;;;;;22.96;57.40;99379.31;5040436;28;20029;-47
2021/08/19 01:21:41;;;;;;;5.88;4.07;;;;;;;23.11;55.86;99378.25;5036868;28;20025;-48
2021/08/19 01:24:06;;;;;;;7.65;4.88;;;;;;;22.14;59.03;99377.66;5049131;28;20044;-50
2021/08/19 01:26:32;;;;;;;6.03;3.90;;;;;;;21.95;59.82;99377.59;5032599;28;20124;-48
2021/08/19 01:28:57;;;;;;;6.85;4.28;;;;;;;22.35;57.93;99374.69;5021506;28;20017;-50
2021/08/19 01:31:25;;;;;;;5.32;4.10;;;;;;;23.01;56.00;99371.06;5046126;28;20702;-48
2021/08/19 01:33:50;;;;;;;5.80;3.95;;;;;;;22.30;57.93;99377.50;5034575;28;20025;-47
2021/08/19 01:36:15;;;;;;;5.95;3.90;;;;;;;22.17;58.06;99379.78;5048456;28;20021;-47
2021/08/19 01:38:41;;;;;;;6.85;4.05;;;;;;;22.12;58.51;99368.97;5038831;28;20090;-46
2021/08/19 01:41:07;;;;;;;6.88;3.92;;;;;;;22.74;57.06;99373.66;5041501;28;20422;-47
2021/08/19 01:43:33;;;;;;;6.43;3.90;;;;;;;22.27;57.73;99372.66;5034250;28;20063;-48
2021/08/19 01:46:03;;;;;;;5.38;3.90;;;;;;;21.92;58.89;99374.66;5048833;28;20060;-48
2021/08/19 01:48:29;;;;;;;6.47;3.55;;;;;;;22.12;57.54;99374.41;5038498;28;20092;-49
2021/08/19 01:50:54;;;;;;;5.38;3.72;;;;;;;22.35;57.40;99374.69;5043681;28;20032;-48
2021/08/19 01:53:20;;;;;;;6.82;3.65;;;;;;;22.66;55.57;99369.69;5045630;28;20358;-48
2021/08/19 01:55:45;;;;;;;6.72;3.72;;;;;;;22.33;55.67;99368.78;5036146;28;20092;-48
2021/08/19 01:58:11;;;;;;;6.25;3.70;;;;;;;22.25;56.15;99373.72;5049055;28;20025;-48
2021/08/19 02:00:37;;;;;;;5.32;3.42;;;;;;;22.56;54.34;99378.78;5039560;28;20028;-49
2021/08/19 02:03:02;;;;;;;6.70;3.72;;;;;;;22.55;54.22;99385.28;5042392;28;20056;-49
2021/08/19 02:05:28;;;;;;;5.78;3.60;;;;;;;22.62;54.10;99383.03;5046353;28;20488;-50
2021/08/19 02:07:53;;;;;;;7.60;3.90;;;;;;;22.32;55.16;99380.72;5035678;28;20497;-49
2021/08/19 02:10:19;;;;;;;7.20;4.00;;;;;;;22.17;55.55;99384.38;5047857;28;20501;-51
2021/08/19 02:12:45;;;;;;;7.32;3.58;;;;;;;22.44;53.90;99378.38;5040321;28;20021;-50
2021/08/19 02:15:11;;;;;;;7.15;3.80;;;;;;;22.49;53.68;99372.91;5040703;28;20148;-49
2021/08/19 02:17:37;;;;;;;9.35;4.05;;;;;;;22.44;54.25;99381.91;5031603;28;20029;-48
2021/08/19 02:20:03;;;;;;;5.95;3.40;;;;;;;22.58;53.46;99379.28;5047199;28;20024;-47
2021/08/19 02:22:28;;;;;;;5.18;3.42;;;;;;;22.48;53.33;99384.03;5037750;28;20025;-48
2021/08/19 02:24:53;;;;;;;5.95;3.47;;;;;;;22.24;54.31;99387.56;5042191;28;20174;-47
2021/08/19 02:27:19;;;;;;;5.00;3.28;;;;;;;22.08;53.53;99381.50;5031793;28;20017;-49
2021/08/19 02:29:44;;;;;;;5.32;3.20;;;;;;;22.09;54.43;99379.63;5048246;28;20025;-48
2021/08/19 02:32:10;;;;;;;6.03;3.25;;;;;;;22.46;53.46;99392.44;5034241;28;20032;-49
2021/08/19 02:34:35;;;;;;;7.18;3.35;;;;;;;22.97;51.64;99382.81;5045070;28;20033;-51
2021/08/19 02:37:01;;;;;;;9.65;3.42;;;;;;;22.49;52.59;99391.09;5042440;28;20115;-48
2021/08/19 02:39:26;;;;;;;6.03;3.20;;;;;;;22.43;52.38;99391.13;5038429;28;20358;-51
2021/08/19 02:41:51;;;;;;;7.85;3.30;;;;;;;22.65;51.55;99387.84;5048249;28;20036;-50
2021/08/19 02:44:17;;;;;;;6.03;3.22;;;;;;;23.15;50.40;99389.34;5035628;28;20021;-51
2021/08/19 02:46:42;;;;;;;7.38;3.53;;;;;;;23.41;49.60;99393.25;5043982;28;20131;-49
2021/08/19 02:49:08;;;;;;;7.43;3.50;;;;;;;23.25;49.30;99402.78;5042835;28;20021;-51
2021/08/19 02:51:33;;;;;;;5.60;3.45;;;;;;;22.98;50.48;99396.09;5036564;28;20087;-48
2021/08/19 02:53:59;;;;;;;6.15;3.25;;;;;;;23.18;49.78;99394.19;5047717;28;20051;-47
2021/08/19 02:56:26;;;;;;;5.18;2.90;;;;;;;23.56;48.50;99396.81;5036521;28;20401;-49
2021/08/19 02:58:52;;;;;;;5.18;3.15;;;;;;;23.43;48.71;99399.19;5042216;28;20029;-48
2021/08/19 03:01:17;;;;;;;5.68;3.10;;;;;;;23.18;49.66;99391.47;5043801;28;20020;-49
2021/08/19 03:03:43;;;;;;;5.13;3.30;;;;;;;22.79;50.61;99396.09;5035196;28;20025;-47
2021/08/19 03:06:08;;;;;;;5.38;3.53;;;;;;;23.18;49.66;99397.69;5047784;28;20067;-48
2021/08/19 03:08:34;;;;;;;5.70;3.30;;;;;;;23.57;48.33;99399.25;5037951;28;20596;-50
2021/08/19 03:10:59;;;;;;;5.45;3.00;;;;;;;23.33;48.40;99409.44;5040976;28;20411;-48
2021/08/19 03:13:25;;;;;;;5.40;3.40;;;;;;;23.02;49.12;99401.72;5043081;28;20052;-47
2021/08/19 03:15:50;;;;;;;9.80;3.30;;;;;;;23.40;48.83;99401.72;5033374;28;20010;-46
2021/08/19 03:18:16;;;;;;;4.78;3.20;;;;;;;23.41;48.19;99401.41;5033544;28;20090;-48
2021/08/19 03:20:41;;;;;;;6.97;4.20;;;;;;;23.31;48.12;99408.91;5042932;28;20029;-48
2021/08/19 03:23:06;;;;;;;17.98;10.32;;;;;;;23.10;49.04;99403.00;5041293;28;20032;-48
2021/08/19 03:25:32;;;;;;;12.75;7.68;;;;;;;23.42;47.82;99407.66;5035958;28;20710;-46
2021/08/19 03:28:02;;;;;;;11.32;3.72;;;;;;;23.43;47.54;99409.25;5032072;28;20028;-47
2021/08/19 03:30:28;;;;;;;6.55;3.55;;;;;;;23.06;48.41;99416.34;5044834;28;20014;-47
2021/08/19 03:32:53;;;;;;;7.35;3.42;;;;;;;22.36;50.44;99417.00;5039743;28;20453;-47
2021/08/19 03:35:19;;;;;;;4.70;3.10;;;;;;;22.61;49.79;99424.78;5037632;28;20037;-48
2021/08/19 03:37:44;;;;;;;7.40;3.40;;;;;;;22.39;49.79;99395.53;5046536;28;20024;-48
2021/08/19 03:40:10;;;;;;;6.78;3.15;;;;;;;22.86;48.63;99414.69;5033914;28;20025;-48
2021/08/19 03:42:37;;;;;;;8.00;4.00;;;;;;;22.76;49.15;99423.78;5043597;28;20025;-48
2021/08/19 03:45:05;;;;;;;9.07;3.50;;;;;;;22.80;49.17;99429.44;5040844;28;20032;-46
2021/08/19 03:47:31;;;;;;;6.53;3.20;;;;;;;23.35;47.88;99429.75;5036951;28;20160;-50
2021/08/19 03:49:56;;;;;;;8.48;4.07;;;;;;;23.69;47.11;99430.56;5047176;28;20286;-48
2021/08/19 03:52:22;;;;;;;5.65;3.53;;;;;;;23.61;47.23;99437.47;5034755;28;20031;-48
2021/08/19 03:54:47;;;;;;;6.78;4.22;;;;;;;23.51;47.84;99433.00;5041791;28;20048;-48
2021/08/19 03:57:13;;;;;;;5.93;3.35;;;;;;;23.75;47.01;99441.03;5040399;28;20032;-47
2021/08/19 03:59:38;;;;;;;6.78;3.35;;;;;;;24.32;45.87;99437.31;5034494;28;20029;-48
2021/08/19 04:02:04;;;;;;;6.85;3.85;;;;;;;24.64;45.54;99430.16;5046397;28;20029;-48
2021/08/19 04:04:31;;;;;;;7.70;3.40;;;;;;;24.54;46.01;99432.00;5036075;28;20024;-50
2021/08/19 04:06:56;;;;;;;5.88;3.42;;;;;;;24.58;45.76;99434.91;5039675;28;20041;-47
2021/08/19 04:09:22;;;;;;;5.22;3.40;;;;;;;24.78;45.23;99430.94;5043252;28;20525;-47
2021/08/19 04:11:47;;;;;;;8.18;3.40;;;;;;;24.71;45.05;99436.81;5033070;28;20493;-48
2021/08/19 04:14:13;;;;;;;6.15;3.67;;;;;;;24.72;45.68;99429.44;5045382;28;20378;-48
2021/08/19 04:16:38;;;;;;;6.00;3.95;;;;;;;24.81;45.60;99432.22;5028957;28;20017;-48
2021/08/19 04:19:04;;;;;;;8.70;3.58;;;;;;;25.18;44.19;99431.13;5039582;28;20021;-49
2021/08/19 04:21:29;;;;;;;6.72;3.50;;;;;;;24.74;44.94;99429.94;5034508;28;20485;-49
2021/08/19 04:23:55;;;;;;;6.00;3.60;;;;;;;24.63;45.07;99425.81;5045526;28;20095;-48
2021/08/19 04:26:20;;;;;;;5.53;3.55;;;;;;;23.91;46.90;99424.47;5028642;28;20382;-49
2021/08/19 04:28:46;;;;;;;7.15;4.53;;;;;;;24.64;45.85;99422.00;5037199;28;20028;-48
2021/08/19 04:31:11;;;;;;;5.20;3.47;;;;;;;25.29;44.30;99427.06;5037201;28;20429;-49
2021/08/19 04:33:36;;;;;;;6.55;3.60;;;;;;;25.41;43.64;99426.50;5044193;28;20024;-49
2021/08/19 04:36:02;;;;;;;6.38;3.55;;;;;;;25.15;44.12;99426.28;5045188;28;20029;-48
2021/08/19 04:38:29;;;;;;;20.40;13.20;;;;;;;25.58;42.82;99425.03;5048844;28;20476;-47
2021/08/19 04:40:54;;;;;;;12.07;6.43;;;;;;;26.03;41.88;99425.78;5039425;28;20040;-49
2021/08/19 04:43:21;;;;;;;6.45;3.20;;;;;;;26.13;40.76;99422.75;5042370;28;20025;-49
2021/08/19 04:45:47;;;;;;;7.85;3.53;;;;;;;25.42;42.49;99413.69;5032714;28;20112;-50
2021/08/19 04:48:12;;;;;;;5.75;3.40;;;;;;;25.51;42.36;99420.84;5045077;28;20022;-48
2021/08/19 04:50:38;;;;;;;10.30;3.85;;;;;;;25.94;41.78;99423.00;5035883;28;20017;-49
2021/08/19 04:53:04;;;;;;;5.90;3.53;;;;;;;26.60;39.91;99425.03;5038257;28;20038;-50
2021/08/19 04:55:29;;;;;;;6.28;3.20;;;;;;;26.52;39.74;99423.88;5045821;28;20488;-50
2021/08/19 04:57:55;;;;;;;5.22;3.13;;;;;;;26.21;40.03;99423.91;5036264;28;20032;-48
2021/08/19 05:00:20;;;;;;;4.63;2.97;;;;;;;26.46;39.70;99429.78;5047561;28;20025;-49
2021/08/19 05:02:46;;;;;;;5.57;2.90;;;;;;;26.88;39.09;99433.75;5040799;28;20021;-50
2021/08/19 05:05:11;;;;;;;4.82;3.30;;;;;;;26.98;38.82;99440.00;5040434;28;20061;-49
2021/08/19 05:07:37;;;;;;;6.88;3.42;;;;;;;26.84;39.51;99430.03;5046470;28;20450;-50
2021/08/19 05:10:02;;;;;;;7.05;3.45;;;;;;;26.60;39.52;99432.38;5050167;28;20476;-51
2021/08/19 05:12:28;;;;;;;6.88;3.40;;;;;;;27.13;38.50;99441.44;5037955;28;20016;-48
2021/08/19 05:14:53;;;;;;;5.00;2.90;;;;;;;27.78;37.20;99442.34;5042604;28;20079;-50
2021/08/19 05:17:19;;;;;;;6.28;3.10;;;;;;;28.05;36.41;99438.47;5032328;28;20025;-51
2021/08/19 05:19:44;;;;;;;4.00;3.28;;;;;;;27.71;36.54;99444.81;5048473;28;20036;-49
2021/08/19 05:22:09;;;;;;;7.75;3.20;;;;;;;27.86;36.62;99441.53;5033625;28;20397;-49
2021/08/19 05:24:35;;;;;;;6.75;3.00;;;;;;;28.38;35.71;99446.81;5045014;28;20022;-51
2021/08/19 05:27:00;;;;;;;5.07;3.08;;;;;;;28.55;35.00;99442.44;5032003;28;20032;-50
2021/08/19 05:29:26;;;;;;;5.05;3.00;;;;;;;27.79;35.64;99422.91;5046280;28;20078;-51
2021/08/19 05:31:51;;;;;;;5.32;2.67;;;;;;;27.38;35.69;99443.41;5035189;28;20025;-51
2021/08/19 05:34:17;;;;;;;8.07;2.70;;;;;;;27.56;34.59;99437.91;5047519;28;20025;-49
2021/08/19 05:36:42;;;;;;;4.50;2.78;;;;;;;27.27;34.57;99442.13;5038251;28;20404;-49
2021/08/19 05:39:08;;;;;;;4.55;2.60;;;;;;;27.61;33.99;99438.53;5041010;28;20029;-52
2021/08/19 05:41:33;;;;;;;6.00;2.67;;;;;;;27.49;34.24;99436.50;5046682;28;20029;-52
2021/08/19 05:43:58;;;;;;;5.05;2.65;;;;;;;27.43;34.99;99440.50;5035281;28;20040;-48
2021/08/19 05:46:24;;;;;;;5.68;2.72;;;;;;;27.91;33.59;99446.06;5046850;28;20708;-52
2021/08/19 05:48:49;;;;;;;10.27;2.90;;;;;;;27.48;33.72;99440.31;5040565;28;20029;-50
2021/08/19 05:51:16;;;;;;;9.43;3.25;;;;;;;27.31;34.46;99448.56;5039034;28;20107;-50
2021/08/19 05:53:42;;;;;;;6.25;3.00;;;;;;;27.51;34.16;99449.81;5047655;28;20028;-48
2021/08/19 05:56:08;;;;;;;5.65;2.60;;;;;;;28.56;31.96;99439.38;5035448;28;20017;-51
2021/08/19 05:58:33;;;;;;;4.90;2.58;;;;;;;28.63;31.27;99436.88;5045271;28;20035;-50
2021/08/19 06:00:58;;;;;;;5.30;2.97;;;;;;;29.32;31.03;99436.72;5041504;28;20454;-49
2021/08/19 06:03:24;;;;;;;7.38;2.67;;;;;;;29.36;30.89;99445.84;5038183;28;20083;-50
2021/08/19 06:05:49;;;;;;;6.97;2.60;;;;;;;29.11;30.88;99434.78;5046642;28;20083;-50
2021/08/19 06:08:15;;;;;;;5.60;2.92;;;;;;;28.36;31.02;99429.13;5035620;28;20491;-51
2021/08/19 06:10:41;;;;;;;6.55;2.85;;;;;;;28.96;31.07;99438.09;5044183;28;20044;-50
2021/08/19 06:13:06;;;;;;;6.05;2.70;;;;;;;29.37;30.32;99442.78;5041517;28;20025;-51
2021/08/19 06:15:32;;;;;;;7.32;2.40;;;;;;;28.87;29.93;99442.88;5036779;28;20227;-51
2021/08/19 06:17:57;;;;;;;5.18;2.20;;;;;;;28.88;29.78;99438.97;5033022;28;20021;-51
2021/08/19 06:20:23;;;;;;;6.72;2.72;;;;;;;29.89;28.68;99440.69;5044655;28;20025;-50
2021/08/19 06:22:51;;;;;;;10.00;4.93;;;;;;;29.24;29.12;99439.22;5039727;28;20820;-51
2021/08/19 06:25:16;;;;;;;5.38;2.67;;;;;;;29.46;29.54;99437.25;5038458;28;20031;-51
2021/08/19 06:27:42;;;;;;;6.82;2.63;;;;;;;29.89;29.11;99444.25;5031372;28;20029;-51
2021/08/19 06:30:07;;;;;;;6.78;2.45;;;;;;;30.75;28.15;99437.97;5042216;28;20022;-52
2021/08/19 06:32:33;;;;;;;6.15;2.88;;;;;;;30.54;28.19;99440.84;5038247;28;20123;-51
2021/08/19 06:34:58;;;;;;;6.75;2.80;;;;;;;28.72;30.46;99433.31;5039953;28;20572;-51
2021/08/19 06:37:24;;;;;;;5.95;2.60;;;;;;;28.62;30.87;99431.75;5038876;28;20087;-51
2021/08/19 06:39:49;;;;;;;3.63;2.40;;;;;;;28.78;30.51;99448.41;5039241;28;20119;-48
2021/08/19 06:42:15;;;;;;;4.70;2.67;;;;;;;29.48;29.63;99443.19;5036650;28;20178;-51
2021/08/19 06:44:40;;;;;;;7.35;2.60;;;;;;;29.63;29.04;99442.53;5038399;28;20017;-52
2021/08/19 06:47:06;;;;;;;5.93;2.83;;;;;;;29.97;29.32;99445.28;5036887;28;20362;-52
2021/08/19 06:49:31;;;;;;;9.23;3.40;;;;;;;30.80;27.68;99433.00;5039078;28;20021;-51
2021/08/19 06:51:57;;;;;;;4.43;2.60;;;;;;;29.69;28.14;99439.59;5036539;28;20065;-51
2021/08/19 06:54:22;;;;;;;7.22;2.70;;;;;;;29.44;28.55;99445.00;5035903;28;20021;-53
2021/08/19 06:56:47;;;;;;;7.07;2.50;;;;;;;29.31;29.36;99446.09;5038518;28;20040;-51
2021/08/19 06:59:13;;;;;;;8.57;2.72;;;;;;;29.28;29.44;99444.00;5037065;28;20029;-51
2021/08/19 07:01:38;;;;;;;24.10;3.95;;;;;;;30.39;28.21;99456.09;5038094;28;20393;-50
2021/08/19 07:04:04;;;;;;;12.73;2.90;;;;;;;31.31;26.77;99456.50;5038824;28;20030;-48
2021/08/19 07:06:29;;;;;;;4.85;2.40;;;;;;;30.31;27.57;99457.78;5035588;28;20024;-47
2021/08/19 07:08:55;;;;;;;8.50;2.60;;;;;;;30.65;27.32;99463.16;5038432;28;20457;-48
2021/08/19 07:11:20;;;;;;;4.13;2.50;;;;;;;31.13;27.09;99461.47;5036893;28;20439;-48
2021/08/19 07:13:46;;;;;;;8.48;2.65;;;;;;;30.49;27.57;99450.13;5037411;28;20090;-48
2021/08/19 07:16:11;;;;;;;6.88;2.70;;;;;;;30.90;26.83;99453.75;5036665;28;20127;-48
2021/08/19 07:18:36;;;;;;;6.60;2.67;;;;;;;30.51;28.25;99458.00;5035953;28;20013;-49
2021/08/19 07:21:02;;;;;;;5.85;2.42;;;;;;;30.71;27.80;99453.53;5037664;28;20029;-48
2021/08/19 07:23:27;;;;;;;5.32;2.35;;;;;;;30.53;27.44;99452.97;5037736;28;20099;-48
2021/08/19 07:25:53;;;;;;;6.00;2.75;;;;;;;30.70;27.30;99451.94;5035230;28;20048;-48
2021/08/19 07:28:19;;;;;;;5.40;2.40;;;;;;;30.80;26.86;99460.47;5038166;28;20081;-50
2021/08/19 07:30:45;;;;;;;5.95;2.80;;;;;;;30.94;27.15;99448.38;5037187;28;20026;-49
2021/08/19 07:33:11;;;;;;;4.82;3.05;;;;;;;31.99;26.40;99457.50;5037418;28;20050;-48
2021/08/19 07:35:37;;;;;;;5.85;2.55;;;;;;;32.70;25.37;99461.25;5038914;28;20013;-50
2021/08/19 07:38:02;;;;;;;4.00;2.58;;;;;;;32.16;25.51;99465.47;5037724;28;20017;-50
2021/08/19 07:40:29;;;;;;;5.25;2.72;;;;;;;31.66;25.83;99459.47;5034191;28;20018;-48
2021/08/19 07:42:55;;;;;;;5.65;2.33;;;;;;;31.65;25.67;99476.31;5036991;28;20525;-48
2021/08/19 07:45:22;;;;;;;6.32;2.90;;;;;;;31.70;25.48;99468.59;5036505;28;20105;-48
2021/08/19 07:47:48;;;;;;;5.50;2.35;;;;;;;31.38;25.96;99470.44;5037330;28;20112;-48
2021/08/19 07:50:14;;;;;;;3.83;2.42;;;;;;;30.58;26.96;99464.53;5036752;28;20031;-47
2021/08/19 07:52:39;;;;;;;6.80;2.92;;;;;;;31.72;26.00;99477.28;5039230;28;20026;-49
2021/08/19 07:55:06;;;;;;;17.73;13.75;;;;;;;32.40;25.16;99472.72;5039339;28;20047;-51
2021/08/19 07:57:45;;;;;;;5.75;4.10;;;;;;;32.96;24.28;99471.66;5035012;28;20018;-48
2021/08/19 08:00:11;;;;;;;6.87;3.93;;;;;;;33.41;23.64;99464.72;5032264;28;20166;-49
2021/08/19 08:02:36;;;;;;;5.60;3.70;;;;;;;33.13;24.15;99461.38;5040760;28;20051;-50
2021/08/19 08:05:03;;;;;;;13.98;12.48;;;;;;;32.78;24.70;99471.25;5038903;28;20048;-48
2021/08/19 08:07:29;;;;;;;6.90;4.80;;;;;;;33.41;24.11;99469.44;5033706;28;20073;-51
2021/08/19 08:09:54;;;;;;;7.53;6.05;;;;;;;32.93;23.78;99470.41;5044783;28;20063;-48
2021/08/19 08:12:20;;;;;;;5.60;4.22;;;;;;;33.71;22.98;99460.59;5033059;28;20016;-49
2021/08/19 08:14:45;;;;;;;6.53;2.60;;;;;;;34.04;23.21;99469.06;5039565;28;20028;-49
2021/08/19 08:17:11;;;;;;;5.15;2.88;;;;;;;33.50;22.78;99470.03;5027967;28;20014;-52
2021/08/19 08:19:37;;;;;;;8.25;5.05;;;;;;;33.19;23.18;99460.75;5043401;28;20217;-50
2021/08/19 08:22:03;;;;;;;9.60;7.63;;;;;;;33.79;22.75;99465.84;5031252;28;20067;-51
2021/08/19 08:24:28;;;;;;;6.88;4.05;;;;;;;33.57;23.14;99466.63;5041978;28;20017;-51
2021/08/19 08:26:54;;;;;;;6.90;6.20;;;;;;;33.02;23.34;99463.91;5027981;28;20040;-49
2021/08/19 08:29:20;;;;;;;6.95;6.25;;;;;;;33.27;22.96;99459.72;5040065;28;20024;-51
2021/08/19 08:31:45;;;;;;;9.15;7.65;;;;;;;33.70;22.79;99465.31;5031646;28;20091;-49
2021/08/19 08:34:11;;;;;;;6.65;5.30;;;;;;;34.34;21.86;99457.34;5041879;28;20025;-49
2021/08/19 08:36:37;;;;;;;7.95;3.28;;;;;;;34.65;21.98;99453.47;5027523;28;20017;-50
2021/08/19 08:39:04;;;;;;;9.05;5.22;;;;;;;34.28;21.89;99454.09;5037389;28;20082;-52
2021/08/19 08:41:32;;;;;;;6.53;4.40;;;;;;;34.03;22.15;99456.41;5033790;28;20021;-51
2021/08/19 08:43:57;;;;;;;3.50;2.17;;;;;;;34.01;20.98;99456.00;5044353;28;20059;-49
2021/08/19 08:46:23;;;;;;;3.70;2.33;;;;;;;33.97;21.68;99454.34;5031934;28;20029;-50
2021/08/19 08:48:48;;;;;;;6.03;2.60;;;;;;;34.61;21.72;99455.38;5037851;28;20021;-50
2021/08/19 08:51:13;;;;;;;4.63;2.30;;;;;;;34.25;22.58;99457.63;5038715;28;20040;-48
2021/08/19 08:53:41;;;;;;;3.97;2.42;;;;;;;34.57;21.24;99460.03;5027070;28;20428;-49
2021/08/19 08:56:06;;;;;;;2.60;2.28;;;;;;;34.95;20.91;99454.69;5044573;28;20049;-51
2021/08/19 08:58:32;;;;;;;6.68;2.40;;;;;;;34.97;21.05;99457.84;5034571;28;20017;-49
2021/08/19 09:00:58;;;;;;;7.47;2.38;;;;;;;35.31;20.23;99452.38;5036576;28;20060;-50
2021/08/19 09:03:23;;;;;;;4.22;2.20;;;;;;;35.17;20.92;99444.69;5028031;28;20021;-51
2021/08/19 09:05:50;;;;;;;3.42;2.40;;;;;;;34.66;21.39;99444.00;5044208;28;20043;-49
2021/08/19 09:08:18;;;;;;;4.40;2.35;;;;;;;34.69;20.87;99445.28;5027663;28;20570;-51
2021/08/19 09:10:44;;;;;;;4.93;2.60;;;;;;;35.00;20.31;99441.31;5036188;28;20037;-49
2021/08/19 09:13:15;;;;;;;6.40;2.70;;;;;;;34.60;21.60;99437.22;5036187;28;20021;-50
2021/08/19 09:15:41;;;;;;;3.65;2.50;;;;;;;35.17;21.17;99439.97;5027436;28;20045;-50
2021/08/19 09:18:07;;;;;;;8.55;2.70;;;;;;;35.30;20.48;99439.72;5029316;28;20082;-50
2021/08/19 09:20:40;;;;;;;4.05;2.55;;;;;;;35.37;20.83;99437.81;5041329;28;20071;-55
2021/08/19 09:23:12;;;;;;;7.38;2.70;;;;;;;35.60;19.92;99445.16;5038721;28;20040;-48
2021/08/19 09:25:42;;;;;;;5.35;2.60;;;;;;;36.00;19.66;99440.81;5030550;28;20466;-50
2021/08/19 09:28:20;;;;;;;6.78;2.38;;;;;;;35.32;20.38;99421.59;5029692;28;20025;-51
2021/08/19 09:30:56;;;;;;;3.22;2.30;;;;;;;35.38;20.24;99433.09;5039627;28;20044;-51
2021/08/19 09:33:29;;;;;;;5.85;2.33;;;;;;;35.26;20.09;99430.59;5041695;28;20048;-50
2021/08/19 09:35:56;;;;;;;6.30;2.47;;;;;;;35.67;19.36;99428.66;5030352;28;20017;-51
2021/08/19 09:38:24;;;;;;;4.78;2.45;;;;;;;35.85;19.37;99428.03;5042883;28;20021;-49
2021/08/19 09:41:18;;;;;;;2.97;2.35;;;;;;;35.56;20.42;99433.28;5038357;28;20021;-49
2021/08/19 09:43:46;;;;;;;3.78;2.50;;;;;;;35.58;19.91;99422.63;5035137;28;20057;-50
2021/08/19 09:46:14;;;;;;;3.88;2.30;;;;;;;35.57;19.35;99419.06;5034662;28;20396;-51
2021/08/19 09:48:41;;;;;;;4.82;2.65;;;;;;;34.81;20.62;99424.91;5042413;28;20022;-49
2021/08/19 09:51:19;;;;;;;4.13;2.50;;;;;;;34.69;20.08;99422.34;5042721;28;20091;-53
2021/08/19 09:53:55;;;;;;;8.10;3.05;;;;;;;34.87;19.98;99420.63;5034658;28;20034;-49
2021/08/19 09:56:35;;;;;;;7.40;2.80;;;;;;;35.45;20.03;99411.03;5045402;28;20042;-50
2021/08/19 09:59:24;;;;;;;6.20;2.60;;;;;;;35.17;20.27;99415.09;5030959;28;20429;-52
2021/08/19 10:01:53;;;;;;;3.72;2.30;;;;;;;35.29;19.79;99410.47;5047281;28;20033;-49
2021/08/19 10:04:20;;;;;;;5.75;2.40;;;;;;;35.09;19.87;99398.75;5035474;28;20033;-50
2021/08/19 10:06:45;;;;;;;3.10;2.55;;;;;;;35.22;19.16;99402.91;5042045;28;20117;-50
2021/08/19 10:09:11;;;;;;;4.50;2.55;;;;;;;35.08;20.03;99408.25;5042544;28;20025;-51
2021/08/19 10:11:37;;;;;;;3.47;2.55;;;;;;;35.11;20.33;99390.88;5035249;28;20098;-50
2021/08/19 10:14:03;;;;;;;5.45;2.80;;;;;;;35.43;20.54;99391.25;5031757;28;20480;-49
2021/08/19 10:16:30;;;;;;;10.18;2.53;;;;;;;35.23;20.07;99397.00;5039902;28;20139;-49
2021/08/19 10:18:55;;;;;;;4.28;2.70;;;;;;;35.55;19.61;99390.22;5041196;28;20010;-49
2021/08/19 10:21:21;;;;;;;5.43;2.30;;;;;;;35.68;19.82;99396.25;5042069;28;20051;-51
2021/08/19 10:23:47;;;;;;;3.22;2.33;;;;;;;35.95;18.88;99394.94;5033802;28;20030;-52
2021/08/19 10:26:17;;;;;;;6.25;2.70;;;;;;;36.18;19.20;99388.41;5028412;28;20028;-51
2021/08/19 10:28:54;;;;;;;3.25;2.30;;;;;;;35.94;18.72;99392.53;5037170;28;20104;-50
2021/08/19 10:31:43;;;;;;;3.03;2.30;;;;;;;35.83;18.81;99386.91;5037098;28;20057;-51
2021/08/19 10:34:10;;;;;;;3.97;2.42;;;;;;;35.88;17.94;99385.78;5046533;28;20021;-49
2021/08/19 10:36:44;;;;;;;6.47;2.80;;;;;;;35.59;18.66;99382.72;5037181;28;20043;-51
2021/08/19 10:39:19;;;;;;;5.07;3.00;;;;;;;35.12;19.27;99381.44;5038547;28;20033;-51
2021/08/19 10:41:45;;;;;;;4.70;2.67;;;;;;;35.44;18.67;99388.13;5046814;28;20063;-52
2021/08/19 10:44:11;;;;;;;6.57;2.72;;;;;;;35.11;18.99;99374.28;5033650;28;20028;-53
2021/08/19 10:46:57;;;;;;;4.50;2.78;;;;;;;35.74;18.48;99375.38;5042991;28;20041;-52
2021/08/19 10:49:33;;;;;;;5.47;2.80;;;;;;;36.25;17.63;99371.81;5030293;28;20084;-38
2021/08/19 10:52:08;;;;;;;4.32;2.67;;;;;;;35.65;18.96;99367.38;5030553;28;20029;-38
2021/08/19 10:54:34;;;;;;;4.63;2.90;;;;;;;35.82;19.75;99368.72;5030569;28;20528;-36
2021/08/19 10:57:32;;;;;;;6.60;2.80;;;;;;;35.47;19.40;99369.16;5030642;28;20045;-36
2021/08/19 10:59:58;;;;;;;6.93;2.90;;;;;;;36.17;18.33;99364.66;5029560;28;20030;-52
2021/08/19 11:02:42;;;;;;;6.38;2.92;;;;;;;35.67;19.18;99367.00;5030668;28;20045;-51
2021/08/19 11:05:10;;;;;;;5.10;3.08;;;;;;;35.16;19.33;99369.22;5040976;28;20056;-53
2021/08/19 11:07:58;;;;;;;6.25;3.00;;;;;;;34.53;19.54;99364.50;5039179;28;20045;-51
2021/08/19 11:10:36;;;;;;;5.07;2.75;;;;;;;34.69;19.61;99367.91;5040508;28;20256;-52
2021/08/19 11:13:06;;;;;;;5.97;2.80;;;;;;;33.99;20.04;99358.97;5040237;28;20017;-50
2021/08/19 11:15:32;;;;;;;3.17;2.50;;;;;;;34.69;18.80;99356.84;5038060;28;20117;-52
2021/08/19 11:17:59;;;;;;;3.75;2.90;;;;;;;35.44;19.45;99351.38;5039548;28;20042;-51
2021/08/19 11:20:29;;;;;;;4.82;3.10;;;;;;;35.53;19.48;99356.56;5039054;28;20040;-51
2021/08/19 11:23:01;;;;;;;4.90;2.80;;;;;;;35.81;19.55;99353.28;5038372;28;20045;-38
2021/08/19 11:25:27;;;;;;;4.88;2.88;;;;;;;36.10;19.09;99339.66;5046373;28;20048;-38
2021/08/19 11:27:54;;;;;;;6.32;3.10;;;;;;;35.43;21.07;99349.78;5030457;28;20497;-53
2021/08/19 11:30:33;;;;;;;4.10;3.00;;;;;;;35.07;19.84;99335.56;5030389;28;20021;-51